sensor_id;sensor_type;location;lat;lon;timestamp;P1;durP1;ratioP1;P2;durP2;ratioP2
74974;SDS011;68459;50.836;19.138;2024-01-25T00:00:07;5.95;;;0.90;;
74974;SDS011;68459;50.836;19.138;2024-01-25T00:03:35;5.17;;;1.10;;
74974;SDS011;68459;50.836;19.138;2024-01-25T00:06:38;3.72;;;0.82;;
74974;SDS011;68459;50.836;19.138;2024-01-25T00:09:43;7.53;;;1.25;;
74974;SDS011;68459;50.836;19.138;2024-01-25T00:12:46;6.70;;;1.03;;
74974;SDS011;68459;50.836;19.138;2024-01-25T00:15:51;4.97;;;1.05;;
74974;SDS011;68459;50.836;19.138;2024-01-25T00:18:56;6.65;;;0.88;;
74974;SDS011;68459;50.836;19.138;2024-01-25T00:22:01;4.50;;;0.90;;
74974;SDS011;68459;50.836;19.138;2024-01-25T00:25:05;7.22;;;1.13;;
74974;SDS011;68459;50.836;19.138;2024-01-25T00:28:09;2.67;;;0.88;;
74974;SDS011;68459;50.836;19.138;2024-01-25T00:31:14;5.70;;;1.20;;
74974;SDS011;68459;50.836;19.138;2024-01-25T00:34:21;4.37;;;0.97;;
74974;SDS011;68459;50.836;19.138;2024-01-25T00:37:25;5.38;;;1.02;;
74974;SDS011;68459;50.836;19.138;2024-01-25T00:40:30;3.78;;;0.93;;
74974;SDS011;68459;50.836;19.138;2024-01-25T00:43:34;2.83;;;0.60;;
74974;SDS011;68459;50.836;19.138;2024-01-25T00:46:39;5.80;;;1.00;;
74974;SDS011;68459;50.836;19.138;2024-01-25T00:49:45;7.05;;;1.00;;
74974;SDS011;68459;50.836;19.138;2024-01-25T00:52:50;4.15;;;1.20;;
74974;SDS011;68459;50.836;19.138;2024-01-25T00:55:55;4.57;;;1.08;;
74974;SDS011;68459;50.836;19.138;2024-01-25T00:59:00;3.22;;;0.73;;
74974;SDS011;68459;50.836;19.138;2024-01-25T01:02:04;3.55;;;0.95;;
74974;SDS011;68459;50.836;19.138;2024-01-25T01:05:14;5.50;;;1.27;;
74974;SDS011;68459;50.836;19.138;2024-01-25T01:08:19;3.67;;;0.93;;
74974;SDS011;68459;50.836;19.138;2024-01-25T01:11:24;9.30;;;1.02;;
74974;SDS011;68459;50.836;19.138;2024-01-25T01:14:28;7.23;;;0.87;;
74974;SDS011;68459;50.836;19.138;2024-01-25T01:17:33;4.95;;;1.20;;
74974;SDS011;68459;50.836;19.138;2024-01-25T01:20:38;4.78;;;0.82;;
74974;SDS011;68459;50.836;19.138;2024-01-25T01:23:42;4.00;;;0.90;;
74974;SDS011;68459;50.836;19.138;2024-01-25T01:26:45;4.03;;;1.10;;
74974;SDS011;68459;50.836;19.138;2024-01-25T01:29:51;3.53;;;0.82;;
74974;SDS011;68459;50.836;19.138;2024-01-25T01:32:55;4.55;;;0.75;;
74974;SDS011;68459;50.836;19.138;2024-01-25T01:36:00;4.47;;;0.47;;
74974;SDS011;68459;50.836;19.138;2024-01-25T01:39:04;3.58;;;0.65;;
74974;SDS011;68459;50.836;19.138;2024-01-25T01:42:09;5.15;;;0.80;;
74974;SDS011;68459;50.836;19.138;2024-01-25T01:45:13;2.93;;;0.70;;
74974;SDS011;68459;50.836;19.138;2024-01-25T01:48:17;4.47;;;0.80;;
74974;SDS011;68459;50.836;19.138;2024-01-25T01:51:23;3.83;;;0.70;;
74974;SDS011;68459;50.836;19.138;2024-01-25T01:54:27;5.80;;;0.73;;
74974;SDS011;68459;50.836;19.138;2024-01-25T01:57:31;3.70;;;1.00;;
74974;SDS011;68459;50.836;19.138;2024-01-25T02:00:37;5.75;;;0.93;;
74974;SDS011;68459;50.836;19.138;2024-01-25T02:03:42;5.07;;;0.77;;
74974;SDS011;68459;50.836;19.138;2024-01-25T02:06:48;6.27;;;0.80;;
74974;SDS011;68459;50.836;19.138;2024-01-25T02:09:52;3.95;;;0.90;;
74974;SDS011;68459;50.836;19.138;2024-01-25T02:12:56;4.47;;;0.93;;
74974;SDS011;68459;50.836;19.138;2024-01-25T02:16:00;5.20;;;1.07;;
74974;SDS011;68459;50.836;19.138;2024-01-25T02:19:04;5.43;;;0.85;;
74974;SDS011;68459;50.836;19.138;2024-01-25T02:22:10;3.25;;;0.90;;
74974;SDS011;68459;50.836;19.138;2024-01-25T02:25:15;9.50;;;1.30;;
74974;SDS011;68459;50.836;19.138;2024-01-25T02:28:20;2.88;;;1.17;;
74974;SDS011;68459;50.836;19.138;2024-01-25T02:31:24;2.63;;;1.00;;
74974;SDS011;68459;50.836;19.138;2024-01-25T02:34:28;4.38;;;1.05;;
74974;SDS011;68459;50.836;19.138;2024-01-25T02:37:32;5.80;;;1.00;;
74974;SDS011;68459;50.836;19.138;2024-01-25T02:40:37;4.22;;;0.85;;
74974;SDS011;68459;50.836;19.138;2024-01-25T02:43:41;4.75;;;0.88;;
74974;SDS011;68459;50.836;19.138;2024-01-25T02:46:45;6.23;;;0.77;;
74974;SDS011;68459;50.836;19.138;2024-01-25T02:49:50;3.58;;;0.70;;
74974;SDS011;68459;50.836;19.138;2024-01-25T02:52:54;7.63;;;1.25;;
74974;SDS011;68459;50.836;19.138;2024-01-25T02:56:00;6.10;;;1.33;;
74974;SDS011;68459;50.836;19.138;2024-01-25T02:59:03;5.47;;;0.93;;
74974;SDS011;68459;50.836;19.138;2024-01-25T03:02:08;4.25;;;1.10;;
74974;SDS011;68459;50.836;19.138;2024-01-25T03:05:11;6.22;;;1.15;;
74974;SDS011;68459;50.836;19.138;2024-01-25T03:08:15;3.87;;;0.80;;
74974;SDS011;68459;50.836;19.138;2024-01-25T03:11:20;11.20;;;1.50;;
74974;SDS011;68459;50.836;19.138;2024-01-25T03:14:25;11.95;;;1.42;;
74974;SDS011;68459;50.836;19.138;2024-01-25T03:17:28;5.43;;;1.20;;
74974;SDS011;68459;50.836;19.138;2024-01-25T03:20:32;5.47;;;1.10;;
74974;SDS011;68459;50.836;19.138;2024-01-25T03:23:37;7.72;;;1.00;;
74974;SDS011;68459;50.836;19.138;2024-01-25T03:26:42;6.03;;;1.13;;
74974;SDS011;68459;50.836;19.138;2024-01-25T03:29:46;3.60;;;0.73;;
74974;SDS011;68459;50.836;19.138;2024-01-25T03:32:50;5.28;;;0.63;;
74974;SDS011;68459;50.836;19.138;2024-01-25T03:35:54;10.95;;;0.88;;
74974;SDS011;68459;50.836;19.138;2024-01-25T03:38:58;6.07;;;0.67;;
74974;SDS011;68459;50.836;19.138;2024-01-25T03:42:04;5.45;;;0.93;;
74974;SDS011;68459;50.836;19.138;2024-01-25T03:45:08;8.82;;;1.08;;
74974;SDS011;68459;50.836;19.138;2024-01-25T03:48:12;5.90;;;1.13;;
74974;SDS011;68459;50.836;19.138;2024-01-25T03:51:17;5.10;;;1.00;;
74974;SDS011;68459;50.836;19.138;2024-01-25T03:54:21;4.95;;;0.73;;
74974;SDS011;68459;50.836;19.138;2024-01-25T03:57:27;6.93;;;1.00;;
74974;SDS011;68459;50.836;19.138;2024-01-25T04:00:31;3.80;;;1.20;;
74974;SDS011;68459;50.836;19.138;2024-01-25T04:03:35;5.65;;;0.77;;
74974;SDS011;68459;50.836;19.138;2024-01-25T04:06:40;7.47;;;1.50;;
74974;SDS011;68459;50.836;19.138;2024-01-25T04:09:46;11.23;;;0.90;;
74974;SDS011;68459;50.836;19.138;2024-01-25T04:12:52;4.82;;;1.10;;
74974;SDS011;68459;50.836;19.138;2024-01-25T04:15:57;4.22;;;1.30;;
74974;SDS011;68459;50.836;19.138;2024-01-25T04:19:01;9.27;;;1.33;;
74974;SDS011;68459;50.836;19.138;2024-01-25T04:22:06;4.03;;;0.82;;
74974;SDS011;68459;50.836;19.138;2024-01-25T04:25:10;5.05;;;1.08;;
74974;SDS011;68459;50.836;19.138;2024-01-25T04:28:16;4.13;;;1.00;;
74974;SDS011;68459;50.836;19.138;2024-01-25T04:31:20;7.82;;;0.98;;
74974;SDS011;68459;50.836;19.138;2024-01-25T04:34:25;9.27;;;1.17;;
74974;SDS011;68459;50.836;19.138;2024-01-25T04:37:29;5.68;;;0.77;;
74974;SDS011;68459;50.836;19.138;2024-01-25T04:40:33;6.13;;;0.90;;
74974;SDS011;68459;50.836;19.138;2024-01-25T04:43:38;11.57;;;1.77;;
74974;SDS011;68459;50.836;19.138;2024-01-25T04:46:42;7.35;;;0.88;;
74974;SDS011;68459;50.836;19.138;2024-01-25T04:49:46;7.53;;;1.23;;
74974;SDS011;68459;50.836;19.138;2024-01-25T04:52:51;4.18;;;0.90;;
74974;SDS011;68459;50.836;19.138;2024-01-25T04:55:54;6.93;;;1.00;;
74974;SDS011;68459;50.836;19.138;2024-01-25T04:59:00;6.57;;;0.82;;
74974;SDS011;68459;50.836;19.138;2024-01-25T05:02:04;3.53;;;0.63;;
74974;SDS011;68459;50.836;19.138;2024-01-25T05:05:08;9.48;;;1.60;;
74974;SDS011;68459;50.836;19.138;2024-01-25T05:08:12;7.25;;;1.40;;
74974;SDS011;68459;50.836;19.138;2024-01-25T05:11:16;5.80;;;0.83;;
74974;SDS011;68459;50.836;19.138;2024-01-25T05:14:21;5.32;;;1.25;;
74974;SDS011;68459;50.836;19.138;2024-01-25T05:17:26;7.55;;;0.88;;
74974;SDS011;68459;50.836;19.138;2024-01-25T05:20:30;5.57;;;1.10;;
74974;SDS011;68459;50.836;19.138;2024-01-25T05:23:36;5.55;;;1.23;;
74974;SDS011;68459;50.836;19.138;2024-01-25T05:26:40;5.38;;;1.48;;
74974;SDS011;68459;50.836;19.138;2024-01-25T05:29:46;2.45;;;0.57;;
74974;SDS011;68459;50.836;19.138;2024-01-25T05:32:49;6.53;;;1.00;;
74974;SDS011;68459;50.836;19.138;2024-01-25T05:35:56;4.35;;;0.90;;
74974;SDS011;68459;50.836;19.138;2024-01-25T05:39:00;8.05;;;1.02;;
74974;SDS011;68459;50.836;19.138;2024-01-25T05:42:09;5.33;;;1.37;;
74974;SDS011;68459;50.836;19.138;2024-01-25T05:45:14;8.48;;;1.27;;
74974;SDS011;68459;50.836;19.138;2024-01-25T05:48:18;6.13;;;1.05;;
74974;SDS011;68459;50.836;19.138;2024-01-25T05:51:22;4.33;;;1.17;;
74974;SDS011;68459;50.836;19.138;2024-01-25T05:54:26;9.00;;;1.58;;
74974;SDS011;68459;50.836;19.138;2024-01-25T05:57:30;8.32;;;1.60;;
74974;SDS011;68459;50.836;19.138;2024-01-25T06:00:36;5.88;;;1.27;;
74974;SDS011;68459;50.836;19.138;2024-01-25T06:03:40;8.20;;;1.33;;
74974;SDS011;68459;50.836;19.138;2024-01-25T06:06:44;7.15;;;1.15;;
74974;SDS011;68459;50.836;19.138;2024-01-25T06:09:51;5.30;;;1.42;;
74974;SDS011;68459;50.836;19.138;2024-01-25T06:12:56;3.87;;;1.23;;
74974;SDS011;68459;50.836;19.138;2024-01-25T06:16:01;5.45;;;1.23;;
74974;SDS011;68459;50.836;19.138;2024-01-25T06:19:05;8.10;;;0.82;;
74974;SDS011;68459;50.836;19.138;2024-01-25T06:22:09;6.53;;;1.53;;
74974;SDS011;68459;50.836;19.138;2024-01-25T06:25:15;6.80;;;1.05;;
74974;SDS011;68459;50.836;19.138;2024-01-25T06:28:18;3.70;;;1.20;;
74974;SDS011;68459;50.836;19.138;2024-01-25T06:31:24;5.15;;;0.85;;
74974;SDS011;68459;50.836;19.138;2024-01-25T06:34:28;6.00;;;1.55;;
74974;SDS011;68459;50.836;19.138;2024-01-25T06:37:32;5.63;;;0.93;;
74974;SDS011;68459;50.836;19.138;2024-01-25T06:40:36;8.57;;;1.40;;
74974;SDS011;68459;50.836;19.138;2024-01-25T06:43:40;6.97;;;1.10;;
74974;SDS011;68459;50.836;19.138;2024-01-25T06:46:45;3.63;;;1.10;;
74974;SDS011;68459;50.836;19.138;2024-01-25T06:49:50;9.32;;;0.90;;
74974;SDS011;68459;50.836;19.138;2024-01-25T06:52:54;5.57;;;1.57;;
74974;SDS011;68459;50.836;19.138;2024-01-25T06:55:58;1.92;;;0.50;;
74974;SDS011;68459;50.836;19.138;2024-01-25T06:59:02;4.65;;;1.17;;
74974;SDS011;68459;50.836;19.138;2024-01-25T07:02:08;4.68;;;0.73;;
74974;SDS011;68459;50.836;19.138;2024-01-25T07:05:14;5.57;;;0.90;;
74974;SDS011;68459;50.836;19.138;2024-01-25T07:08:18;3.53;;;0.75;;
74974;SDS011;68459;50.836;19.138;2024-01-25T07:11:23;3.92;;;1.30;;
74974;SDS011;68459;50.836;19.138;2024-01-25T07:14:27;4.93;;;0.80;;
74974;SDS011;68459;50.836;19.138;2024-01-25T07:17:32;3.30;;;0.70;;
74974;SDS011;68459;50.836;19.138;2024-01-25T07:20:36;7.85;;;1.73;;
74974;SDS011;68459;50.836;19.138;2024-01-25T07:23:40;5.33;;;1.03;;
74974;SDS011;68459;50.836;19.138;2024-01-25T07:26:44;5.53;;;0.90;;
74974;SDS011;68459;50.836;19.138;2024-01-25T07:29:48;2.92;;;0.80;;
74974;SDS011;68459;50.836;19.138;2024-01-25T07:32:54;7.22;;;1.00;;
74974;SDS011;68459;50.836;19.138;2024-01-25T07:35:57;4.97;;;0.98;;
74974;SDS011;68459;50.836;19.138;2024-01-25T07:39:01;7.40;;;1.17;;
74974;SDS011;68459;50.836;19.138;2024-01-25T07:42:05;4.68;;;1.00;;
74974;SDS011;68459;50.836;19.138;2024-01-25T07:45:09;9.87;;;1.40;;
74974;SDS011;68459;50.836;19.138;2024-01-25T07:48:16;3.17;;;0.90;;
74974;SDS011;68459;50.836;19.138;2024-01-25T07:51:21;3.08;;;0.98;;
74974;SDS011;68459;50.836;19.138;2024-01-25T07:54:24;5.47;;;1.60;;
74974;SDS011;68459;50.836;19.138;2024-01-25T07:57:29;6.22;;;1.08;;
74974;SDS011;68459;50.836;19.138;2024-01-25T08:00:32;6.13;;;1.17;;
74974;SDS011;68459;50.836;19.138;2024-01-25T08:03:38;5.00;;;1.63;;
74974;SDS011;68459;50.836;19.138;2024-01-25T08:06:42;5.13;;;1.92;;
74974;SDS011;68459;50.836;19.138;2024-01-25T08:09:46;9.85;;;1.80;;
74974;SDS011;68459;50.836;19.138;2024-01-25T08:12:53;3.17;;;1.17;;
74974;SDS011;68459;50.836;19.138;2024-01-25T08:16:09;5.17;;;1.53;;
74974;SDS011;68459;50.836;19.138;2024-01-25T08:19:14;9.38;;;1.27;;
74974;SDS011;68459;50.836;19.138;2024-01-25T08:22:19;3.50;;;0.80;;
74974;SDS011;68459;50.836;19.138;2024-01-25T08:25:24;5.97;;;1.30;;
74974;SDS011;68459;50.836;19.138;2024-01-25T08:28:29;4.22;;;0.95;;
74974;SDS011;68459;50.836;19.138;2024-01-25T08:31:33;6.85;;;1.80;;
74974;SDS011;68459;50.836;19.138;2024-01-25T08:34:39;5.70;;;1.63;;
74974;SDS011;68459;50.836;19.138;2024-01-25T08:37:42;6.75;;;1.20;;
74974;SDS011;68459;50.836;19.138;2024-01-25T08:40:46;7.22;;;1.58;;
74974;SDS011;68459;50.836;19.138;2024-01-25T08:43:50;9.90;;;1.40;;
74974;SDS011;68459;50.836;19.138;2024-01-25T08:46:54;7.53;;;1.30;;
74974;SDS011;68459;50.836;19.138;2024-01-25T08:50:00;4.35;;;1.30;;
74974;SDS011;68459;50.836;19.138;2024-01-25T08:53:04;7.63;;;1.35;;
74974;SDS011;68459;50.836;19.138;2024-01-25T08:56:08;5.53;;;1.53;;
74974;SDS011;68459;50.836;19.138;2024-01-25T08:59:12;7.18;;;1.63;;
74974;SDS011;68459;50.836;19.138;2024-01-25T09:02:16;1.88;;;0.65;;
74974;SDS011;68459;50.836;19.138;2024-01-25T09:05:23;4.45;;;1.20;;
74974;SDS011;68459;50.836;19.138;2024-01-25T09:08:30;2.65;;;0.93;;
74974;SDS011;68459;50.836;19.138;2024-01-25T09:11:34;2.08;;;0.43;;
74974;SDS011;68459;50.836;19.138;2024-01-25T09:14:38;7.63;;;1.25;;
74974;SDS011;68459;50.836;19.138;2024-01-25T09:17:42;5.23;;;0.93;;
74974;SDS011;68459;50.836;19.138;2024-01-25T09:20:48;7.75;;;1.55;;
74974;SDS011;68459;50.836;19.138;2024-01-25T09:23:53;3.97;;;0.52;;
74974;SDS011;68459;50.836;19.138;2024-01-25T09:26:57;3.50;;;0.93;;
74974;SDS011;68459;50.836;19.138;2024-01-25T09:30:02;6.82;;;0.95;;
74974;SDS011;68459;50.836;19.138;2024-01-25T09:33:07;3.80;;;0.98;;
74974;SDS011;68459;50.836;19.138;2024-01-25T09:36:13;5.35;;;1.17;;
74974;SDS011;68459;50.836;19.138;2024-01-25T09:39:17;9.43;;;1.48;;
74974;SDS011;68459;50.836;19.138;2024-01-25T09:42:22;11.77;;;1.38;;
74974;SDS011;68459;50.836;19.138;2024-01-25T09:45:26;3.97;;;0.90;;
74974;SDS011;68459;50.836;19.138;2024-01-25T09:48:30;6.90;;;1.10;;
74974;SDS011;68459;50.836;19.138;2024-01-25T09:51:36;8.75;;;1.40;;
74974;SDS011;68459;50.836;19.138;2024-01-25T09:54:43;7.57;;;0.95;;
74974;SDS011;68459;50.836;19.138;2024-01-25T09:57:48;8.07;;;1.30;;
74974;SDS011;68459;50.836;19.138;2024-01-25T10:00:52;6.05;;;1.63;;
74974;SDS011;68459;50.836;19.138;2024-01-25T10:03:57;6.90;;;1.48;;
74974;SDS011;68459;50.836;19.138;2024-01-25T10:07:02;9.18;;;1.10;;
74974;SDS011;68459;50.836;19.138;2024-01-25T10:10:07;6.50;;;1.50;;
74974;SDS011;68459;50.836;19.138;2024-01-25T10:13:13;7.10;;;1.35;;
74974;SDS011;68459;50.836;19.138;2024-01-25T10:16:17;7.53;;;1.45;;
74974;SDS011;68459;50.836;19.138;2024-01-25T10:19:22;6.60;;;1.10;;
74974;SDS011;68459;50.836;19.138;2024-01-25T10:22:27;7.80;;;1.65;;
74974;SDS011;68459;50.836;19.138;2024-01-25T10:25:33;4.60;;;1.20;;
74974;SDS011;68459;50.836;19.138;2024-01-25T10:28:39;7.73;;;1.40;;
74974;SDS011;68459;50.836;19.138;2024-01-25T10:31:43;7.05;;;1.33;;
74974;SDS011;68459;50.836;19.138;2024-01-25T10:34:48;6.60;;;1.40;;
74974;SDS011;68459;50.836;19.138;2024-01-25T10:37:56;7.82;;;1.20;;
74974;SDS011;68459;50.836;19.138;2024-01-25T10:41:01;8.45;;;1.35;;
74974;SDS011;68459;50.836;19.138;2024-01-25T10:44:06;8.30;;;1.08;;
74974;SDS011;68459;50.836;19.138;2024-01-25T10:47:10;5.25;;;1.05;;
74974;SDS011;68459;50.836;19.138;2024-01-25T10:50:15;5.07;;;1.00;;
74974;SDS011;68459;50.836;19.138;2024-01-25T10:53:20;9.23;;;1.10;;
74974;SDS011;68459;50.836;19.138;2024-01-25T10:56:25;4.57;;;1.30;;
74974;SDS011;68459;50.836;19.138;2024-01-25T10:59:29;10.80;;;1.77;;
74974;SDS011;68459;50.836;19.138;2024-01-25T11:02:34;4.32;;;0.88;;
74974;SDS011;68459;50.836;19.138;2024-01-25T11:05:38;10.32;;;1.30;;
74974;SDS011;68459;50.836;19.138;2024-01-25T11:08:44;10.70;;;1.38;;
74974;SDS011;68459;50.836;19.138;2024-01-25T11:11:48;6.68;;;1.20;;
74974;SDS011;68459;50.836;19.138;2024-01-25T11:14:56;5.30;;;1.00;;
74974;SDS011;68459;50.836;19.138;2024-01-25T11:18:00;3.70;;;1.30;;
74974;SDS011;68459;50.836;19.138;2024-01-25T11:21:06;10.10;;;1.70;;
74974;SDS011;68459;50.836;19.138;2024-01-25T11:24:15;9.57;;;1.58;;
74974;SDS011;68459;50.836;19.138;2024-01-25T11:27:20;8.30;;;1.38;;
74974;SDS011;68459;50.836;19.138;2024-01-25T11:30:24;6.53;;;2.03;;
74974;SDS011;68459;50.836;19.138;2024-01-25T11:33:29;10.13;;;1.67;;
74974;SDS011;68459;50.836;19.138;2024-01-25T11:36:33;5.78;;;1.30;;
74974;SDS011;68459;50.836;19.138;2024-01-25T11:39:38;6.25;;;1.10;;
74974;SDS011;68459;50.836;19.138;2024-01-25T11:42:43;5.07;;;1.05;;
74974;SDS011;68459;50.836;19.138;2024-01-25T11:45:49;5.40;;;1.27;;
74974;SDS011;68459;50.836;19.138;2024-01-25T11:48:52;10.20;;;1.73;;
74974;SDS011;68459;50.836;19.138;2024-01-25T11:51:58;4.67;;;0.70;;
74974;SDS011;68459;50.836;19.138;2024-01-25T11:55:06;9.23;;;1.75;;
74974;SDS011;68459;50.836;19.138;2024-01-25T11:58:12;8.45;;;1.52;;
74974;SDS011;68459;50.836;19.138;2024-01-25T12:01:16;8.47;;;1.60;;
74974;SDS011;68459;50.836;19.138;2024-01-25T12:04:24;5.50;;;1.15;;
74974;SDS011;68459;50.836;19.138;2024-01-25T12:07:29;4.45;;;1.30;;
74974;SDS011;68459;50.836;19.138;2024-01-25T12:10:35;6.97;;;1.40;;
74974;SDS011;68459;50.836;19.138;2024-01-25T12:13:40;3.95;;;0.90;;
74974;SDS011;68459;50.836;19.138;2024-01-25T12:16:45;10.02;;;1.10;;
74974;SDS011;68459;50.836;19.138;2024-01-25T12:19:49;3.95;;;1.00;;
74974;SDS011;68459;50.836;19.138;2024-01-25T12:22:54;9.00;;;1.53;;
74974;SDS011;68459;50.836;19.138;2024-01-25T12:26:00;3.33;;;0.80;;
74974;SDS011;68459;50.836;19.138;2024-01-25T12:29:05;4.28;;;1.00;;
74974;SDS011;68459;50.836;19.138;2024-01-25T12:32:09;5.50;;;1.10;;
74974;SDS011;68459;50.836;19.138;2024-01-25T12:35:13;7.80;;;1.35;;
74974;SDS011;68459;50.836;19.138;2024-01-25T12:38:19;4.88;;;1.30;;
74974;SDS011;68459;50.836;19.138;2024-01-25T12:41:25;5.82;;;1.15;;
74974;SDS011;68459;50.836;19.138;2024-01-25T12:44:29;7.18;;;1.40;;
74974;SDS011;68459;50.836;19.138;2024-01-25T12:47:37;5.90;;;1.00;;
74974;SDS011;68459;50.836;19.138;2024-01-25T12:50:41;4.82;;;1.77;;
74974;SDS011;68459;50.836;19.138;2024-01-25T12:53:46;5.83;;;1.13;;
74974;SDS011;68459;50.836;19.138;2024-01-25T12:56:53;3.55;;;1.20;;
74974;SDS011;68459;50.836;19.138;2024-01-25T12:59:57;3.53;;;1.30;;
74974;SDS011;68459;50.836;19.138;2024-01-25T13:03:03;3.97;;;0.87;;
74974;SDS011;68459;50.836;19.138;2024-01-25T13:06:09;6.15;;;1.00;;
74974;SDS011;68459;50.836;19.138;2024-01-25T13:09:13;8.15;;;1.15;;
74974;SDS011;68459;50.836;19.138;2024-01-25T13:12:19;3.40;;;0.88;;
74974;SDS011;68459;50.836;19.138;2024-01-25T13:15:23;7.50;;;0.90;;
74974;SDS011;68459;50.836;19.138;2024-01-25T13:18:28;3.53;;;0.80;;
74974;SDS011;68459;50.836;19.138;2024-01-25T13:21:33;4.45;;;1.23;;
74974;SDS011;68459;50.836;19.138;2024-01-25T13:24:39;7.13;;;1.17;;
74974;SDS011;68459;50.836;19.138;2024-01-25T13:27:44;6.55;;;0.90;;
74974;SDS011;68459;50.836;19.138;2024-01-25T13:30:49;10.30;;;1.38;;
74974;SDS011;68459;50.836;19.138;2024-01-25T13:33:55;6.27;;;0.77;;
74974;SDS011;68459;50.836;19.138;2024-01-25T13:37:00;7.03;;;1.05;;
74974;SDS011;68459;50.836;19.138;2024-01-25T13:40:04;6.50;;;1.02;;
74974;SDS011;68459;50.836;19.138;2024-01-25T13:43:11;4.43;;;1.38;;
74974;SDS011;68459;50.836;19.138;2024-01-25T13:46:18;8.10;;;1.88;;
74974;SDS011;68459;50.836;19.138;2024-01-25T13:49:24;2.58;;;0.93;;
74974;SDS011;68459;50.836;19.138;2024-01-25T13:52:28;6.00;;;1.38;;
74974;SDS011;68459;50.836;19.138;2024-01-25T13:55:32;5.37;;;1.07;;
74974;SDS011;68459;50.836;19.138;2024-01-25T13:58:38;5.93;;;1.00;;
74974;SDS011;68459;50.836;19.138;2024-01-25T14:01:42;3.83;;;0.93;;
74974;SDS011;68459;50.836;19.138;2024-01-25T14:04:46;5.30;;;1.10;;
74974;SDS011;68459;50.836;19.138;2024-01-25T14:07:50;4.13;;;1.23;;
74974;SDS011;68459;50.836;19.138;2024-01-25T14:10:54;5.18;;;1.33;;
74974;SDS011;68459;50.836;19.138;2024-01-25T14:14:00;7.00;;;1.35;;
74974;SDS011;68459;50.836;19.138;2024-01-25T14:17:04;5.88;;;1.45;;
74974;SDS011;68459;50.836;19.138;2024-01-25T14:20:09;6.88;;;1.30;;
74974;SDS011;68459;50.836;19.138;2024-01-25T14:23:14;6.72;;;1.23;;
74974;SDS011;68459;50.836;19.138;2024-01-25T14:26:19;8.27;;;1.40;;
74974;SDS011;68459;50.836;19.138;2024-01-25T14:29:24;6.55;;;1.90;;
74974;SDS011;68459;50.836;19.138;2024-01-25T14:32:28;8.38;;;1.75;;
74974;SDS011;68459;50.836;19.138;2024-01-25T14:35:32;5.07;;;1.43;;
74974;SDS011;68459;50.836;19.138;2024-01-25T14:38:37;6.18;;;1.58;;
74974;SDS011;68459;50.836;19.138;2024-01-25T14:41:41;10.73;;;1.85;;
74974;SDS011;68459;50.836;19.138;2024-01-25T14:44:49;7.35;;;1.42;;
74974;SDS011;68459;50.836;19.138;2024-01-25T14:47:53;8.15;;;1.75;;
74974;SDS011;68459;50.836;19.138;2024-01-25T14:50:57;9.35;;;1.35;;
74974;SDS011;68459;50.836;19.138;2024-01-25T14:54:01;7.88;;;1.80;;
74974;SDS011;68459;50.836;19.138;2024-01-25T14:57:05;8.07;;;2.07;;
74974;SDS011;68459;50.836;19.138;2024-01-25T15:00:11;5.95;;;1.45;;
74974;SDS011;68459;50.836;19.138;2024-01-25T15:03:22;5.93;;;1.83;;
74974;SDS011;68459;50.836;19.138;2024-01-25T15:06:26;6.40;;;1.43;;
74974;SDS011;68459;50.836;19.138;2024-01-25T15:09:31;6.47;;;1.80;;
74974;SDS011;68459;50.836;19.138;2024-01-25T15:12:35;6.53;;;1.40;;
74974;SDS011;68459;50.836;19.138;2024-01-25T15:15:41;5.63;;;1.80;;
74974;SDS011;68459;50.836;19.138;2024-01-25T15:18:46;10.75;;;2.20;;
74974;SDS011;68459;50.836;19.138;2024-01-25T15:21:51;8.23;;;2.35;;
74974;SDS011;68459;50.836;19.138;2024-01-25T15:24:54;12.20;;;1.90;;
74974;SDS011;68459;50.836;19.138;2024-01-25T15:27:59;9.30;;;1.33;;
74974;SDS011;68459;50.836;19.138;2024-01-25T15:31:04;10.68;;;1.63;;
74974;SDS011;68459;50.836;19.138;2024-01-25T15:34:08;12.60;;;2.28;;
74974;SDS011;68459;50.836;19.138;2024-01-25T15:37:12;7.03;;;1.90;;
74974;SDS011;68459;50.836;19.138;2024-01-25T15:40:17;6.30;;;1.35;;
74974;SDS011;68459;50.836;19.138;2024-01-25T15:43:22;8.05;;;1.90;;
74974;SDS011;68459;50.836;19.138;2024-01-25T15:46:27;8.93;;;1.83;;
74974;SDS011;68459;50.836;19.138;2024-01-25T15:49:31;9.63;;;1.65;;
74974;SDS011;68459;50.836;19.138;2024-01-25T15:52:36;6.68;;;1.55;;
74974;SDS011;68459;50.836;19.138;2024-01-25T15:55:41;7.35;;;1.65;;
74974;SDS011;68459;50.836;19.138;2024-01-25T15:58:45;7.80;;;2.13;;
74974;SDS011;68459;50.836;19.138;2024-01-25T16:01:50;7.45;;;1.75;;
74974;SDS011;68459;50.836;19.138;2024-01-25T16:04:54;6.57;;;1.30;;
74974;SDS011;68459;50.836;19.138;2024-01-25T16:07:58;5.27;;;1.43;;
74974;SDS011;68459;50.836;19.138;2024-01-25T16:11:03;14.07;;;2.05;;
74974;SDS011;68459;50.836;19.138;2024-01-25T16:14:08;10.75;;;2.00;;
74974;SDS011;68459;50.836;19.138;2024-01-25T16:17:15;6.07;;;1.92;;
74974;SDS011;68459;50.836;19.138;2024-01-25T16:20:19;6.93;;;1.52;;
74974;SDS011;68459;50.836;19.138;2024-01-25T16:23:23;7.80;;;1.95;;
74974;SDS011;68459;50.836;19.138;2024-01-25T16:26:27;6.60;;;1.92;;
74974;SDS011;68459;50.836;19.138;2024-01-25T16:29:33;8.43;;;1.77;;
74974;SDS011;68459;50.836;19.138;2024-01-25T16:32:38;6.07;;;1.27;;
74974;SDS011;68459;50.836;19.138;2024-01-25T16:35:43;7.45;;;1.50;;
74974;SDS011;68459;50.836;19.138;2024-01-25T16:38:46;10.93;;;1.83;;
74974;SDS011;68459;50.836;19.138;2024-01-25T16:41:51;4.60;;;1.83;;
74974;SDS011;68459;50.836;19.138;2024-01-25T16:44:54;12.18;;;2.20;;
74974;SDS011;68459;50.836;19.138;2024-01-25T16:48:00;9.30;;;2.03;;
74974;SDS011;68459;50.836;19.138;2024-01-25T16:51:04;7.85;;;1.60;;
74974;SDS011;68459;50.836;19.138;2024-01-25T16:54:08;5.53;;;2.00;;
74974;SDS011;68459;50.836;19.138;2024-01-25T16:57:12;6.05;;;1.92;;
74974;SDS011;68459;50.836;19.138;2024-01-25T17:00:17;6.63;;;1.87;;
74974;SDS011;68459;50.836;19.138;2024-01-25T17:03:25;6.65;;;1.58;;
74974;SDS011;68459;50.836;19.138;2024-01-25T17:06:30;16.10;;;2.20;;
74974;SDS011;68459;50.836;19.138;2024-01-25T17:09:34;7.83;;;1.70;;
74974;SDS011;68459;50.836;19.138;2024-01-25T17:12:40;9.50;;;2.53;;
74974;SDS011;68459;50.836;19.138;2024-01-25T17:15:43;5.82;;;1.92;;
74974;SDS011;68459;50.836;19.138;2024-01-25T17:18:49;7.63;;;1.88;;
74974;SDS011;68459;50.836;19.138;2024-01-25T17:21:56;11.30;;;2.80;;
74974;SDS011;68459;50.836;19.138;2024-01-25T17:25:01;16.35;;;2.90;;
74974;SDS011;68459;50.836;19.138;2024-01-25T17:28:06;6.68;;;2.17;;
74974;SDS011;68459;50.836;19.138;2024-01-25T17:31:10;7.77;;;1.70;;
74974;SDS011;68459;50.836;19.138;2024-01-25T17:34:16;5.40;;;1.70;;
74974;SDS011;68459;50.836;19.138;2024-01-25T17:37:21;5.30;;;2.08;;
74974;SDS011;68459;50.836;19.138;2024-01-25T17:40:25;9.70;;;2.10;;
74974;SDS011;68459;50.836;19.138;2024-01-25T17:43:29;7.95;;;2.25;;
74974;SDS011;68459;50.836;19.138;2024-01-25T17:46:33;8.70;;;2.47;;
74974;SDS011;68459;50.836;19.138;2024-01-25T17:49:39;7.43;;;1.88;;
74974;SDS011;68459;50.836;19.138;2024-01-25T17:52:43;8.90;;;2.35;;
74974;SDS011;68459;50.836;19.138;2024-01-25T17:55:48;10.65;;;2.15;;
74974;SDS011;68459;50.836;19.138;2024-01-25T17:58:51;12.10;;;2.60;;
74974;SDS011;68459;50.836;19.138;2024-01-25T18:01:57;8.33;;;2.00;;
74974;SDS011;68459;50.836;19.138;2024-01-25T18:05:04;8.90;;;2.70;;
74974;SDS011;68459;50.836;19.138;2024-01-25T18:08:09;10.18;;;2.47;;
74974;SDS011;68459;50.836;19.138;2024-01-25T18:11:12;11.67;;;2.33;;
74974;SDS011;68459;50.836;19.138;2024-01-25T18:14:18;8.85;;;2.08;;